Time;durP1;ratioP1;P1;durP2;ratioP2;P2;SDS_P1;SDS_P2;PMS_P1;PMS_P2;Temp;Humidity;BMP_temperature;BMP_pressure;BME280_temperature;BME280_humidity;BME280_pressure;Samples;Min_cycle;Max_cycle;Signal;HPM_P1;HPM_P2
2022/01/11 00:00:35;;;;;;;50.97;30.85;;;-0.40;99.90;;;;;;5003858;28;20585;-47
2022/01/11 00:03:03;;;;;;;44.38;29.63;;;-0.40;99.90;;;;;;5015210;28;20086;-47
2022/01/11 00:05:35;;;;;;;49.08;31.13;;;-0.40;99.90;;;;;;5003880;28;20384;-48
2022/01/11 00:08:01;;;;;;;53.13;31.27;;;-0.40;99.90;;;;;;5003883;28;20391;-48
2022/01/11 00:10:35;;;;;;;51.00;30.73;;;-0.50;99.90;;;;;;4994614;28;20049;-46
2022/01/11 00:13:01;;;;;;;49.28;30.20;;;-0.50;99.90;;;;;;5022268;28;20045;-46
2022/01/11 00:15:29;;;;;;;48.72;30.83;;;-0.50;99.90;;;;;;5022058;28;20610;-50
2022/01/11 00:17:59;;;;;;;45.85;30.17;;;-0.50;99.90;;;;;;5003918;28;20459;-47
2022/01/11 00:20:28;;;;;;;49.42;30.85;;;-0.40;99.90;;;;;;5003466;28;20111;-49
2022/01/11 00:25:32;;;;;;;50.13;28.80;;;-0.50;99.90;;;;;;5003611;28;20057;-47
2022/01/11 00:27:58;;;;;;;46.53;27.73;;;-0.40;99.90;;;;;;5023599;28;20049;-48
2022/01/11 00:30:29;;;;;;;47.65;29.08;;;-0.50;99.90;;;;;;5005840;28;20053;-47
2022/01/11 00:32:57;;;;;;;47.20;27.20;;;-0.50;99.90;;;;;;5022078;28;20065;-48
2022/01/11 00:35:28;;;;;;;49.17;29.10;;;-0.50;99.90;;;;;;5005992;28;20105;-51
2022/01/11 00:37:54;;;;;;;44.47;27.88;;;-0.50;99.90;;;;;;5006525;28;20057;-49
2022/01/11 00:40:20;;;;;;;44.92;27.83;;;-0.50;99.90;;;;;;5023810;28;20049;-50
2022/01/11 00:42:46;;;;;;;43.95;26.88;;;-0.50;99.90;;;;;;5021426;28;20156;-47
2022/01/11 00:45:13;;;;;;;39.33;25.98;;;-0.40;99.90;;;;;;5021981;28;20045;-48
2022/01/11 00:47:40;;;;;;;44.15;26.52;;;-0.40;99.90;;;;;;5021619;28;20083;-47
2022/01/11 00:50:07;;;;;;;42.78;26.17;;;-0.40;99.90;;;;;;5002635;28;20053;-47
2022/01/11 00:52:33;;;;;;;42.50;26.70;;;-0.40;99.90;;;;;;5023717;28;20044;-47
2022/01/11 00:54:59;;;;;;;41.65;26.08;;;-0.50;99.90;;;;;;5022126;28;20522;-48
2022/01/11 00:57:25;;;;;;;48.10;26.98;;;-0.40;99.90;;;;;;5021589;28;20649;-47
2022/01/11 00:59:53;;;;;;;39.90;25.73;;;-0.40;99.90;;;;;;5003177;28;20050;-49
2022/01/11 01:02:19;;;;;;;42.67;25.67;;;-0.40;99.90;;;;;;5003316;28;20049;-48
2022/01/11 01:04:45;;;;;;;39.25;26.20;;;-0.40;99.90;;;;;;5016668;28;20049;-47
2022/01/11 01:07:11;;;;;;;45.63;27.45;;;-0.30;99.90;;;;;;5021579;28;20056;-49
2022/01/11 01:10:00;;;;;;;44.22;26.55;;;-0.40;99.90;;;;;;5021323;28;20514;-49
2022/01/11 01:12:26;;;;;;;50.20;26.35;;;-0.40;99.90;;;;;;5021188;28;20149;-47
2022/01/11 01:14:52;;;;;;;42.83;27.45;;;-0.40;99.90;;;;;;5003906;28;20049;-47
2022/01/11 01:17:17;;;;;;;47.03;26.63;;;-0.40;99.90;;;;;;5021588;28;20103;-48
2022/01/11 01:19:43;;;;;;;48.50;26.23;;;-0.40;99.90;;;;;;5021594;28;20061;-46
2022/01/11 01:22:09;;;;;;;47.95;26.35;;;-0.50;99.90;;;;;;4997000;28;20525;-47
2022/01/11 01:24:35;;;;;;;49.40;27.73;;;-0.50;99.90;;;;;;5020795;28;20143;-47
2022/01/11 01:27:01;;;;;;;48.70;27.92;;;-0.40;99.90;;;;;;5023022;28;20393;-48
2022/01/11 01:29:27;;;;;;;45.80;26.40;;;-0.40;99.90;;;;;;5020270;28;20056;-50
2022/01/11 01:31:53;;;;;;;47.35;27.88;;;-0.50;99.90;;;;;;5001752;28;20058;-48
2022/01/11 01:34:18;;;;;;;51.40;28.48;;;-0.30;99.90;;;;;;5024328;28;20080;-48
2022/01/11 01:36:44;;;;;;;52.65;26.75;;;-0.30;99.90;;;;;;5021562;28;20056;-47
2022/01/11 01:39:10;;;;;;;50.58;27.58;;;-0.50;99.90;;;;;;5003673;28;20048;-47
2022/01/11 01:41:41;;;;;;;47.45;27.17;;;-0.40;99.90;;;;;;5020435;28;20052;-47
2022/01/11 01:44:06;;;;;;;52.13;27.92;;;-0.50;99.90;;;;;;5024800;28;20049;-49
2022/01/11 01:46:32;;;;;;;52.85;27.63;;;-0.40;99.90;;;;;;5022758;28;20065;-52
2022/01/11 01:49:00;;;;;;;46.95;27.23;;;-0.40;99.90;;;;;;5021823;28;20049;-47
2022/01/11 01:51:26;;;;;;;54.03;27.40;;;-0.40;99.90;;;;;;5001250;28;20080;-47
2022/01/11 01:53:53;;;;;;;54.17;28.23;;;-0.40;99.90;;;;;;5003141;28;20136;-48
2022/01/11 01:56:22;;;;;;;51.85;28.67;;;-0.40;99.90;;;;;;5021179;28;20049;-50
2022/01/11 01:58:48;;;;;;;53.15;27.23;;;-0.40;99.90;;;;;;5019862;28;20060;-48
2022/01/11 02:01:14;;;;;;;48.28;27.67;;;-0.40;99.90;;;;;;5020169;28;20056;-47
2022/01/11 02:03:42;;;;;;;50.53;27.52;;;-0.40;99.90;;;;;;5022409;28;20048;-46
2022/01/11 02:06:12;;;;;;;50.42;28.35;;;-0.40;99.90;;;;;;5023852;28;20440;-48
2022/01/11 02:08:39;;;;;;;51.50;27.67;;;-0.30;99.90;;;;;;5003014;28;20060;-47
2022/01/11 02:11:06;;;;;;;49.15;27.58;;;-0.40;99.90;;;;;;5020553;28;20042;-47
2022/01/11 02:13:32;;;;;;;55.03;27.25;;;-0.40;99.90;;;;;;5005789;28;20514;-48
2022/01/11 02:15:58;;;;;;;54.67;28.02;;;-0.40;99.90;;;;;;5021741;28;20057;-49
2022/01/11 02:18:26;;;;;;;47.25;27.15;;;-0.20;99.90;;;;;;5024970;28;20042;-47
2022/01/11 02:20:55;;;;;;;56.55;26.92;;;-0.20;99.90;;;;;;5023526;28;20045;-47
2022/01/11 02:23:22;;;;;;;48.85;27.65;;;-0.30;99.90;;;;;;5024815;28;20141;-47
2022/01/11 02:25:48;;;;;;;51.63;28.17;;;-0.20;99.90;;;;;;5024294;28;20091;-47
2022/01/11 02:28:22;;;;;;;46.30;27.15;;;-0.30;99.90;;;;;;5027354;28;20068;-48
2022/01/11 02:30:49;;;;;;;50.97;26.90;;;-0.20;99.90;;;;;;5017540;28;20112;-47
2022/01/11 02:33:32;;;;;;;48.33;28.02;;;-0.20;99.90;;;;;;5023449;28;20581;-47
2022/01/11 02:35:59;;;;;;;53.00;27.00;;;-0.20;99.90;;;;;;5002004;28;20064;-47
2022/01/11 02:38:24;;;;;;;48.70;28.35;;;-0.20;99.90;;;;;;5025005;28;20476;-47
2022/01/11 02:40:50;;;;;;;48.58;25.35;;;-0.30;99.90;;;;;;5024319;28;20060;-48
2022/01/11 02:43:16;;;;;;;49.97;26.95;;;-0.30;99.90;;;;;;5024058;28;20468;-47
2022/01/11 02:45:42;;;;;;;57.38;26.92;;;-0.30;99.90;;;;;;5006261;28;20132;-49
2022/01/11 02:48:08;;;;;;;47.45;28.25;;;-0.20;99.90;;;;;;5019612;28;20127;-48
2022/01/11 02:50:33;;;;;;;54.00;27.52;;;-0.30;99.90;;;;;;5009090;28;20087;-47
2022/01/11 02:52:59;;;;;;;56.42;29.00;;;-0.30;99.90;;;;;;5023548;28;20053;-53
2022/01/11 02:55:25;;;;;;;49.13;29.15;;;-0.40;99.90;;;;;;5005944;28;20049;-47
2022/01/11 02:57:51;;;;;;;56.33;29.15;;;-0.30;99.90;;;;;;5020587;28;20041;-46
2022/01/11 03:00:21;;;;;;;51.67;28.42;;;-0.30;99.90;;;;;;5021267;28;20573;-47
2022/01/11 03:02:48;;;;;;;55.70;31.02;;;-0.30;99.90;;;;;;5014828;28;20056;-50
2022/01/11 03:05:14;;;;;;;52.70;28.65;;;-0.40;99.90;;;;;;5023693;28;20052;-47
2022/01/11 03:07:41;;;;;;;57.33;29.83;;;-0.30;99.90;;;;;;5019047;28;20045;-49
2022/01/11 03:12:43;;;;;;;63.45;30.25;;;-0.20;99.90;;;;;;5014229;28;20053;-48
2022/01/11 03:15:11;;;;;;;55.90;31.35;;;-0.30;99.90;;;;;;5023160;28;20052;-47
2022/01/11 03:17:38;;;;;;;59.20;30.15;;;-0.30;99.90;;;;;;5015642;28;20435;-47
2022/01/11 03:20:05;;;;;;;62.65;31.17;;;-0.30;99.90;;;;;;5023174;28;20500;-47
2022/01/11 03:22:31;;;;;;;61.80;30.35;;;-0.20;99.90;;;;;;5023096;28;20072;-47
2022/01/11 03:24:56;;;;;;;61.45;30.65;;;-0.20;99.90;;;;;;5023047;28;20511;-47
2022/01/11 03:27:22;;;;;;;59.05;29.48;;;-0.20;99.90;;;;;;5022911;28;20132;-48
2022/01/11 03:29:48;;;;;;;59.38;30.17;;;-0.20;99.90;;;;;;4997753;28;20058;-49
2022/01/11 03:32:18;;;;;;;60.00;29.75;;;-0.30;99.90;;;;;;5022396;28;20053;-49
2022/01/11 03:34:45;;;;;;;60.78;31.48;;;-0.30;99.90;;;;;;5026958;28;20131;-47
2022/01/11 03:37:17;;;;;;;65.15;30.90;;;-0.30;99.90;;;;;;5015851;28;20473;-48
2022/01/11 03:39:43;;;;;;;59.25;31.08;;;-0.30;99.90;;;;;;5022856;28;20080;-47
2022/01/11 03:42:09;;;;;;;61.08;30.88;;;-0.30;99.90;;;;;;5022718;28;20162;-48
2022/01/11 03:44:35;;;;;;;62.97;31.35;;;-0.20;99.90;;;;;;5022507;28;20044;-49
2022/01/11 03:47:02;;;;;;;62.38;31.10;;;-0.20;99.90;;;;;;5012271;28;20096;-46
2022/01/11 03:49:28;;;;;;;57.80;30.88;;;-0.40;99.90;;;;;;5021845;28;20056;-48
2022/01/11 03:51:53;;;;;;;57.60;31.02;;;-0.40;99.90;;;;;;5018695;28;20415;-48
2022/01/11 03:54:25;;;;;;;66.80;32.13;;;-0.30;99.90;;;;;;4999796;28;20068;-47
2022/01/11 03:56:52;;;;;;;59.45;32.10;;;-0.30;99.90;;;;;;5019241;28;20045;-51
2022/01/11 03:59:19;;;;;;;64.80;32.67;;;-0.30;99.90;;;;;;5005005;28;20182;-51
2022/01/11 04:01:46;;;;;;;66.10;31.15;;;-0.30;99.90;;;;;;5022240;28;20057;-48
2022/01/11 04:04:12;;;;;;;67.97;33.35;;;-0.30;99.90;;;;;;5022370;28;20041;-46
2022/01/11 04:06:39;;;;;;;70.00;33.47;;;-0.20;99.90;;;;;;5022757;28;20494;-48
2022/01/11 04:09:07;;;;;;;71.80;35.30;;;-0.20;99.90;;;;;;5003405;28;20054;-46
2022/01/11 04:11:36;;;;;;;66.95;32.13;;;-0.30;99.90;;;;;;5021051;28;20049;-47
2022/01/11 04:14:01;;;;;;;71.65;33.67;;;-0.20;99.90;;;;;;5019969;28;20613;-47
2022/01/11 04:16:27;;;;;;;64.97;32.47;;;-0.10;99.90;;;;;;5003801;28;20045;-47
2022/01/11 04:18:53;;;;;;;65.18;33.30;;;-0.10;99.90;;;;;;5022010;28;20045;-49
2022/01/11 04:21:19;;;;;;;82.50;35.17;;;-0.10;99.90;;;;;;5021950;28;20060;-46
2022/01/11 04:23:45;;;;;;;81.35;34.20;;;0.00;99.90;;;;;;5003576;28;20057;-48
2022/01/11 04:26:12;;;;;;;69.32;32.13;;;-0.10;99.90;;;;;;5022272;28;20053;-49
2022/01/11 04:28:37;;;;;;;70.03;31.83;;;-0.10;99.90;;;;;;5006862;28;20060;-47
2022/01/11 04:31:03;;;;;;;64.88;32.83;;;0.00;99.90;;;;;;5021498;28;20049;-47
2022/01/11 04:33:30;;;;;;;67.75;32.30;;;-0.10;99.90;;;;;;5022161;28;20046;-47
2022/01/11 04:35:58;;;;;;;72.18;33.15;;;0.00;99.90;;;;;;5024805;28;20041;-47
2022/01/11 04:38:27;;;;;;;68.53;31.40;;;0.00;99.90;;;;;;5003880;28;20472;-47
2022/01/11 04:40:54;;;;;;;65.43;32.40;;;-0.10;99.90;;;;;;5003909;28;20084;-48
2022/01/11 04:43:20;;;;;;;75.60;33.33;;;0.10;99.90;;;;;;5004109;28;20107;-47
2022/01/11 04:45:47;;;;;;;64.53;32.00;;;0.00;99.90;;;;;;5019781;28;20056;-47
2022/01/11 04:48:14;;;;;;;66.90;31.83;;;-0.10;99.90;;;;;;5016372;28;20054;-47
2022/01/11 04:50:40;;;;;;;65.35;32.20;;;-0.10;99.90;;;;;;5018125;28;20056;-47
2022/01/11 04:53:06;;;;;;;71.07;33.28;;;-0.10;99.90;;;;;;5005976;28;20057;-47
2022/01/11 04:55:32;;;;;;;73.63;31.88;;;0.00;99.90;;;;;;5022645;28;20052;-47
2022/01/11 04:57:58;;;;;;;63.17;31.90;;;0.00;99.90;;;;;;5022059;28;20608;-47
2022/01/11 05:00:25;;;;;;;59.95;30.48;;;0.00;99.90;;;;;;5023175;28;20096;-47
2022/01/11 05:02:51;;;;;;;71.07;32.40;;;0.00;99.90;;;;;;5003883;28;20053;-48
2022/01/11 05:05:17;;;;;;;65.80;29.58;;;0.00;99.90;;;;;;5014032;28;20060;-46
2022/01/11 05:07:44;;;;;;;59.22;29.42;;;-0.10;99.90;;;;;;5002348;28;20508;-47
2022/01/11 05:10:10;;;;;;;67.57;30.80;;;-0.10;99.90;;;;;;5003186;28;20136;-47
2022/01/11 05:12:38;;;;;;;62.95;28.73;;;-0.10;99.90;;;;;;5019472;28;20128;-46
2022/01/11 05:15:12;;;;;;;60.92;29.85;;;-0.10;99.90;;;;;;5021666;28;20055;-46
2022/01/11 05:17:39;;;;;;;65.78;30.20;;;-0.10;99.90;;;;;;5021011;28;20072;-47
2022/01/11 05:20:07;;;;;;;64.25;30.33;;;-0.10;99.90;;;;;;5002933;28;20049;-46
2022/01/11 05:22:33;;;;;;;62.90;27.40;;;-0.10;99.90;;;;;;5021017;28;20404;-47
2022/01/11 05:24:59;;;;;;;68.55;31.67;;;-0.20;99.90;;;;;;5021469;28;20049;-46
2022/01/11 05:27:27;;;;;;;67.03;30.63;;;-0.10;99.90;;;;;;5001286;28;20065;-46
2022/01/11 05:29:54;;;;;;;60.10;29.23;;;-0.20;99.90;;;;;;5001775;28;20049;-47
2022/01/11 05:32:20;;;;;;;61.28;28.73;;;-0.20;99.90;;;;;;5018296;28;20144;-46
2022/01/11 05:34:46;;;;;;;56.22;28.92;;;-0.20;99.90;;;;;;5022938;28;20144;-47
2022/01/11 05:37:13;;;;;;;56.28;29.42;;;-0.20;99.90;;;;;;5024575;28;20046;-46
2022/01/11 05:39:39;;;;;;;60.15;28.92;;;-0.20;99.90;;;;;;5006665;28;20087;-47
2022/01/11 05:42:06;;;;;;;58.13;29.35;;;-0.20;99.90;;;;;;5000189;28;20053;-46
2022/01/11 05:44:37;;;;;;;63.70;29.27;;;-0.30;99.90;;;;;;5024085;28;20107;-46
2022/01/11 05:47:04;;;;;;;50.03;26.25;;;-0.30;99.90;;;;;;5000542;28;20064;-48
2022/01/11 05:49:30;;;;;;;54.60;27.42;;;-0.30;99.90;;;;;;5006037;28;20634;-48
2022/01/11 05:51:56;;;;;;;51.60;27.98;;;-0.30;99.90;;;;;;5020867;28;20585;-46
2022/01/11 05:54:22;;;;;;;53.30;27.88;;;-0.30;99.90;;;;;;5028330;28;20053;-46
2022/01/11 05:56:47;;;;;;;58.17;27.38;;;-0.40;99.90;;;;;;5002094;28;20057;-47
2022/01/11 05:59:13;;;;;;;64.32;28.13;;;-0.30;99.90;;;;;;4998085;28;20410;-47
2022/01/11 06:01:39;;;;;;;56.88;26.02;;;-0.30;99.90;;;;;;5024997;28;20188;-47
2022/01/11 06:04:05;;;;;;;53.95;25.73;;;-0.40;99.90;;;;;;5023606;28;20053;-46
2022/01/11 06:06:30;;;;;;;51.83;24.85;;;-0.40;99.90;;;;;;5029251;28;20056;-48
2022/01/11 06:08:56;;;;;;;50.05;24.98;;;-0.30;99.90;;;;;;5006919;28;20245;-47
2022/01/11 06:11:22;;;;;;;52.05;26.70;;;-0.30;99.90;;;;;;5006064;28;20084;-47
2022/01/11 06:13:51;;;;;;;50.75;25.30;;;-0.30;99.90;;;;;;5023642;28;20057;-46
2022/01/11 06:16:17;;;;;;;46.13;25.17;;;-0.40;99.90;;;;;;5024710;28;20119;-46
2022/01/11 06:18:45;;;;;;;48.40;24.75;;;-0.40;99.90;;;;;;5006064;28;20494;-46
2022/01/11 06:21:11;;;;;;;56.75;26.13;;;-0.40;99.90;;;;;;5024036;28;20570;-47
2022/01/11 06:23:37;;;;;;;48.78;24.77;;;-0.40;99.90;;;;;;5005732;28;20049;-46
2022/01/11 06:26:04;;;;;;;46.85;25.67;;;-0.40;99.90;;;;;;5019546;28;20041;-47
2022/01/11 06:28:30;;;;;;;49.85;25.23;;;-0.40;99.90;;;;;;5022621;28;20068;-47
2022/01/11 06:30:55;;;;;;;47.05;25.23;;;-0.40;99.90;;;;;;5022436;28;20484;-46
2022/01/11 06:33:21;;;;;;;49.63;25.27;;;-0.40;99.90;;;;;;5023032;28;20049;-46
2022/01/11 06:35:47;;;;;;;57.47;24.65;;;-0.40;99.90;;;;;;5028458;28;20127;-47
2022/01/11 06:38:14;;;;;;;50.22;25.85;;;-0.50;99.90;;;;;;5024724;28;20152;-49
2022/01/11 06:40:41;;;;;;;51.58;26.10;;;-0.50;99.90;;;;;;5016881;28;20099;-46
2022/01/11 06:43:07;;;;;;;50.35;27.30;;;-0.40;99.90;;;;;;5005641;28;20053;-49
2022/01/11 06:45:34;;;;;;;53.95;26.83;;;-0.50;99.90;;;;;;5018369;28;20060;-46
2022/01/11 06:48:00;;;;;;;56.47;27.55;;;-0.50;99.90;;;;;;5023604;28;20492;-46
2022/01/11 06:50:27;;;;;;;58.38;27.73;;;-0.60;99.90;;;;;;5005162;28;20504;-47
2022/01/11 06:52:53;;;;;;;59.03;29.30;;;-0.50;99.90;;;;;;5021449;28;20413;-46
2022/01/11 06:55:19;;;;;;;59.38;27.65;;;-0.50;99.90;;;;;;5024439;28;20585;-48
2022/01/11 06:57:46;;;;;;;58.40;28.73;;;-0.50;99.90;;;;;;5023659;28;20594;-46
2022/01/11 07:00:13;;;;;;;59.83;26.95;;;-0.50;99.90;;;;;;5025697;28;20054;-48
2022/01/11 07:02:39;;;;;;;59.15;27.77;;;-0.60;99.90;;;;;;5023417;28;20053;-46
2022/01/11 07:05:06;;;;;;;60.53;27.75;;;-0.50;99.90;;;;;;5005707;28;20057;-48
2022/01/11 07:07:32;;;;;;;63.42;29.73;;;-0.50;99.90;;;;;;5023777;28;20114;-47
2022/01/11 07:09:57;;;;;;;54.97;26.40;;;-0.50;99.90;;;;;;5023696;28;20128;-48
2022/01/11 07:12:23;;;;;;;61.13;29.58;;;-0.60;99.90;;;;;;5008207;28;20444;-51
2022/01/11 07:14:49;;;;;;;58.90;27.65;;;-0.60;99.90;;;;;;5005590;28;20060;-49
2022/01/11 07:17:15;;;;;;;54.17;27.23;;;-0.60;99.90;;;;;;5022664;28;20049;-47
2022/01/11 07:19:41;;;;;;;56.00;26.83;;;-0.60;99.90;;;;;;5023612;28;20060;-45
2022/01/11 07:22:07;;;;;;;62.00;29.08;;;-0.60;99.90;;;;;;5023748;28;20049;-48
2022/01/11 07:24:33;;;;;;;55.55;28.67;;;-0.60;99.90;;;;;;5022703;28;20519;-47
2022/01/11 07:26:59;;;;;;;61.08;30.38;;;-0.60;99.90;;;;;;5005532;28;20128;-47
2022/01/11 07:29:25;;;;;;;56.72;27.92;;;-0.70;99.90;;;;;;5022057;28;20053;-47
2022/01/11 07:31:51;;;;;;;61.03;29.23;;;-0.60;99.90;;;;;;5021913;28;20362;-46
2022/01/11 07:34:17;;;;;;;57.22;27.05;;;-0.60;99.90;;;;;;5024800;28;20045;-47
2022/01/11 07:36:43;;;;;;;60.30;29.83;;;-0.60;99.90;;;;;;5003778;28;20131;-47
2022/01/11 07:39:12;;;;;;;61.55;31.58;;;-0.60;99.90;;;;;;5023325;28;20050;-46
2022/01/11 07:41:39;;;;;;;60.50;28.67;;;-0.60;99.90;;;;;;5022860;28;20672;-47
2022/01/11 07:44:05;;;;;;;70.28;32.35;;;-0.70;99.90;;;;;;5004533;28;20499;-47
2022/01/11 07:46:31;;;;;;;69.03;29.98;;;-0.60;99.90;;;;;;5018640;28;20503;-47
2022/01/11 07:48:59;;;;;;;67.53;31.05;;;-0.60;99.90;;;;;;5016595;28;20591;-46
2022/01/11 07:51:28;;;;;;;60.53;29.85;;;-0.60;99.90;;;;;;5017621;28;20508;-46
2022/01/11 07:53:54;;;;;;;62.65;29.95;;;-0.60;99.90;;;;;;4999728;28;20041;-47
2022/01/11 07:56:20;;;;;;;70.97;33.05;;;-0.60;99.90;;;;;;5013365;28;20637;-47
2022/01/11 07:58:46;;;;;;;68.85;30.77;;;-0.60;99.90;;;;;;4999886;28;20049;-46
2022/01/11 08:01:12;;;;;;;70.55;34.47;;;-0.60;99.90;;;;;;4995686;28;20049;-47
2022/01/11 08:03:38;;;;;;;64.10;31.50;;;-0.50;99.90;;;;;;5018721;28;20101;-49
2022/01/11 08:06:04;;;;;;;71.47;32.90;;;-0.50;99.90;;;;;;4996932;28;20052;-46
2022/01/11 08:08:29;;;;;;;76.00;32.70;;;-0.50;99.90;;;;;;5000334;28;20432;-46
2022/01/11 08:10:56;;;;;;;69.25;31.48;;;-0.50;99.90;;;;;;5013237;28;20570;-47
2022/01/11 08:13:23;;;;;;;67.00;32.88;;;-0.60;99.90;;;;;;5020044;28;20049;-47
2022/01/11 08:15:49;;;;;;;79.88;33.03;;;-0.50;99.90;;;;;;5019615;28;20530;-48
2022/01/11 08:18:15;;;;;;;70.55;31.77;;;-0.50;99.90;;;;;;5024928;28;20049;-47
2022/01/11 08:20:41;;;;;;;68.70;32.25;;;-0.50;99.90;;;;;;4997772;28;20072;-49
2022/01/11 08:23:07;;;;;;;70.60;32.30;;;-0.40;99.90;;;;;;5017294;28;20427;-49
2022/01/11 08:25:32;;;;;;;73.57;33.17;;;-0.40;99.90;;;;;;5014724;28;20056;-47
2022/01/11 08:27:59;;;;;;;74.75;32.55;;;-0.50;99.90;;;;;;5016101;28;20535;-50
2022/01/11 08:30:26;;;;;;;79.72;34.97;;;-0.40;99.90;;;;;;4996738;28;20439;-47
2022/01/11 08:32:52;;;;;;;85.70;35.55;;;-0.40;99.90;;;;;;5017908;28;20123;-47
2022/01/11 08:35:17;;;;;;;81.47;33.63;;;-0.40;99.90;;;;;;5016734;28;20057;-47
2022/01/11 08:37:43;;;;;;;77.70;34.40;;;-0.40;99.90;;;;;;5015911;28;20046;-46
2022/01/11 08:40:10;;;;;;;72.50;34.28;;;-0.40;99.90;;;;;;5014604;28;20061;-47
2022/01/11 08:42:36;;;;;;;86.07;35.97;;;-0.40;99.90;;;;;;5013295;28;20493;-46
2022/01/11 08:45:03;;;;;;;81.85;37.60;;;-0.30;99.90;;;;;;4999042;28;20095;-47
2022/01/11 08:47:30;;;;;;;84.47;37.63;;;-0.30;99.90;;;;;;5011069;28;20115;-47
2022/01/11 08:50:02;;;;;;;85.15;39.75;;;-0.40;99.90;;;;;;4993903;28;20053;-47
2022/01/11 08:52:28;;;;;;;81.32;37.58;;;-0.40;99.90;;;;;;4996789;28;20045;-47
2022/01/11 08:54:54;;;;;;;90.22;38.45;;;-0.40;99.90;;;;;;4999889;28;20095;-48
2022/01/11 08:57:20;;;;;;;81.20;37.22;;;-0.30;99.90;;;;;;5018808;28;20053;-47
2022/01/11 08:59:47;;;;;;;84.07;38.15;;;-0.40;99.90;;;;;;5015240;28;20123;-50
2022/01/11 09:02:13;;;;;;;83.57;37.20;;;-0.30;99.90;;;;;;5020785;28;20057;-46
2022/01/11 09:04:39;;;;;;;82.07;37.38;;;-0.40;99.90;;;;;;5021946;28;20054;-50
2022/01/11 09:07:06;;;;;;;92.03;39.80;;;-0.20;99.90;;;;;;5020881;28;20487;-46
2022/01/11 09:09:33;;;;;;;82.35;39.35;;;-0.30;99.90;;;;;;5002223;28;20377;-48
2022/01/11 09:12:03;;;;;;;81.68;37.63;;;-0.30;99.90;;;;;;5016848;28;20388;-50
2022/01/11 09:14:33;;;;;;;83.22;38.05;;;-0.20;99.90;;;;;;5001701;28;20049;-52
2022/01/11 09:17:02;;;;;;;78.05;38.25;;;-0.20;99.90;;;;;;5014913;28;20107;-49
2022/01/11 09:19:29;;;;;;;82.55;36.88;;;-0.20;99.90;;;;;;5002090;28;20057;-46
2022/01/11 09:21:55;;;;;;;81.15;37.55;;;-0.30;99.90;;;;;;5021041;28;20049;-49
2022/01/11 09:24:21;;;;;;;79.13;36.08;;;-0.20;99.90;;;;;;5023988;28;20045;-50
2022/01/11 09:26:48;;;;;;;78.88;36.35;;;-0.20;99.90;;;;;;5002995;28;20188;-50
2022/01/11 09:29:14;;;;;;;75.38;36.00;;;-0.20;99.90;;;;;;5020719;28;20049;-47
2022/01/11 09:31:41;;;;;;;75.43;36.83;;;-0.20;99.90;;;;;;5019824;28;20119;-48
2022/01/11 09:34:07;;;;;;;78.88;36.63;;;-0.20;99.90;;;;;;5024977;28;20144;-46
2022/01/11 09:36:33;;;;;;;73.18;34.95;;;-0.10;99.90;;;;;;5022013;28;20055;-49
2022/01/11 09:38:59;;;;;;;75.10;36.35;;;-0.10;99.90;;;;;;5021304;28;20087;-47
2022/01/11 09:41:25;;;;;;;74.43;35.13;;;-0.10;99.90;;;;;;4986748;28;20064;-46
2022/01/11 09:43:51;;;;;;;68.68;33.90;;;0.00;99.90;;;;;;5002862;28;20038;-46
2022/01/11 09:46:17;;;;;;;66.57;33.65;;;0.00;99.90;;;;;;5021113;28;20053;-50
2022/01/11 09:48:45;;;;;;;71.93;35.22;;;0.00;99.90;;;;;;5025826;28;20041;-46
2022/01/11 09:51:11;;;;;;;70.30;35.22;;;0.00;99.90;;;;;;4999654;28;20496;-48
2022/01/11 09:53:37;;;;;;;69.85;33.92;;;0.10;99.90;;;;;;4998764;28;20179;-47
2022/01/11 09:56:07;;;;;;;67.50;33.92;;;0.20;99.90;;;;;;5003296;28;20124;-47
2022/01/11 09:58:34;;;;;;;67.22;34.40;;;0.20;99.90;;;;;;5020242;28;20050;-49
2022/01/11 10:01:00;;;;;;;65.88;33.60;;;0.20;99.90;;;;;;5019747;28;20423;-46
2022/01/11 10:03:26;;;;;;;64.53;33.58;;;0.20;99.90;;;;;;5020799;28;20073;-46
2022/01/11 10:05:52;;;;;;;61.25;32.15;;;0.30;99.90;;;;;;5003735;28;20172;-47
2022/01/11 10:08:28;;;;;;;58.03;31.83;;;0.30;99.90;;;;;;5020343;28;20344;-46
2022/01/11 10:10:58;;;;;;;59.75;30.60;;;0.30;99.90;;;;;;5009210;28;20413;-47
2022/01/11 10:13:33;;;;;;;59.50;33.63;;;0.30;99.90;;;;;;5015922;28;20046;-47
2022/01/11 10:16:18;;;;;;;59.45;33.85;;;0.30;99.90;;;;;;5012910;28;20056;-46
2022/01/11 10:18:44;;;;;;;59.80;32.78;;;0.30;99.90;;;;;;5010410;28;20073;-47
2022/01/11 10:21:42;;;;;;;60.75;33.25;;;0.40;99.90;;;;;;5021330;28;20132;-46
2022/01/11 10:24:32;;;;;;;56.15;31.85;;;0.40;99.90;;;;;;4983964;28;20053;-46
2022/01/11 10:27:03;;;;;;;55.80;31.70;;;0.40;99.90;;;;;;5022109;28;20045;-46
2022/01/11 10:29:36;;;;;;;55.63;33.28;;;0.50;99.90;;;;;;5019389;28;20089;-47
2022/01/11 10:32:14;;;;;;;49.88;26.45;;;0.60;99.90;;;;;;5021537;28;20052;-52
2022/01/11 10:34:43;;;;;;;64.38;33.33;;;0.60;99.90;;;;;;5023927;28;20060;-47
2022/01/11 10:37:10;;;;;;;56.78;31.70;;;0.70;99.90;;;;;;5018450;28;20045;-47
2022/01/11 10:39:43;;;;;;;56.63;32.40;;;0.80;99.90;;;;;;5003421;28;20591;-46
2022/01/11 10:42:38;;;;;;;;;;;0.80;99.90;;;;;;5015827;28;20061;-47
2022/01/11 10:45:25;;;;;;;50.85;30.35;;;1.00;99.90;;;;;;5022359;28;19924;-46
2022/01/11 10:47:54;;;;;;;49.35;30.55;;;1.10;99.90;;;;;;5016797;28;20537;-47
2022/01/11 10:50:28;;;;;;;52.35;31.77;;;1.20;99.90;;;;;;5001329;28;20058;-49
2022/01/11 10:53:26;;;;;;;49.22;27.98;;;1.30;99.90;;;;;;5020720;28;20505;-47
2022/01/11 10:55:57;;;;;;;48.47;28.67;;;1.30;99.90;;;;;;4924769;29;20066;-46
2022/01/11 10:58:24;;;;;;;42.67;26.50;;;1.40;99.90;;;;;;4926490;29;20678;-46
2022/01/11 11:00:55;;;;;;;46.65;28.25;;;1.40;99.90;;;;;;4923773;29;20065;-47
2022/01/11 11:03:27;;;;;;;43.38;27.45;;;1.50;99.90;;;;;;4923249;29;20047;-48
2022/01/11 11:06:10;;;;;;;45.42;28.27;;;1.60;99.90;;;;;;4907797;29;20066;-48
2022/01/11 11:08:40;;;;;;;;;;;1.60;99.90;;;;;;4924274;29;20062;-50
2022/01/11 11:11:12;;;;;;;41.97;24.45;;;1.60;99.90;;;;;;4922360;29;19938;-47
2022/01/11 11:13:40;;;;;;;43.15;24.55;;;1.70;99.90;;;;;;4923625;29;20567;-48
2022/01/11 11:16:09;;;;;;;42.40;25.80;;;1.70;99.90;;;;;;4924788;29;20172;-47
2022/01/11 11:18:40;;;;;;;42.92;25.73;;;1.80;99.90;;;;;;4924235;29;20503;-47
2022/01/11 11:21:32;;;;;;;39.63;25.02;;;1.80;99.90;;;;;;4925289;29;20071;-46
2022/01/11 11:24:16;;;;;;;37.83;24.05;;;1.80;99.90;;;;;;4923193;29;20143;-48
2022/01/11 11:26:46;;;;;;;38.88;23.65;;;1.90;99.90;;;;;;4929374;29;20060;-46
2022/01/11 11:29:12;;;;;;;38.08;23.20;;;1.90;99.90;;;;;;4923919;29;20557;-46
2022/01/11 11:31:38;;;;;;;40.00;25.23;;;1.90;99.90;;;;;;4923768;29;20059;-46
2022/01/11 11:34:08;;;;;;;42.25;24.05;;;1.90;99.90;;;;;;5021900;28;20057;-49
2022/01/11 11:36:35;;;;;;;38.70;23.25;;;1.90;99.90;;;;;;5027933;28;20140;-47
2022/01/11 11:39:11;;;;;;;36.90;21.67;;;2.00;99.90;;;;;;5024811;28;20103;-55
2022/01/11 11:41:41;;;;;;;39.05;23.02;;;2.00;99.90;;;;;;5024984;28;20064;-47
2022/01/11 11:44:10;;;;;;;35.17;24.15;;;2.00;99.90;;;;;;5005272;28;20554;-46
2022/01/11 11:46:59;;;;;;;37.05;23.02;;;2.00;99.90;;;;;;5023843;28;20053;-47
2022/01/11 11:49:43;;;;;;;36.90;24.38;;;2.00;99.90;;;;;;5022261;28;20475;-46
2022/01/11 11:52:30;;;;;;;34.67;22.08;;;2.10;99.90;;;;;;5022478;28;20456;-47
2022/01/11 11:54:58;;;;;;;36.83;21.85;;;2.10;99.90;;;;;;5005007;28;20057;-47
2022/01/11 11:57:27;;;;;;;41.05;23.48;;;2.10;99.90;;;;;;5005537;28;20053;-47
2022/01/11 11:59:56;;;;;;;33.58;22.60;;;2.20;99.90;;;;;;5022678;28;20057;-46
2022/01/11 12:02:34;;;;;;;37.97;23.85;;;2.30;99.90;;;;;;5022847;28;20053;-48
2022/01/11 12:05:12;;;;;;;36.75;22.13;;;2.30;99.90;;;;;;5004613;28;20419;-47
2022/01/11 12:07:41;;;;;;;33.55;21.73;;;2.30;99.90;;;;;;5022484;28;20114;-50
2022/01/11 12:10:29;;;;;;;32.92;22.48;;;2.30;99.90;;;;;;5004255;28;20044;-48
2022/01/11 12:12:56;;;;;;;33.80;22.48;;;2.30;99.90;;;;;;5000589;28;20049;-47
2022/01/11 12:15:21;;;;;;;34.63;20.58;;;2.30;99.90;;;;;;5022475;28;20072;-47
2022/01/11 12:18:07;;;;;;;31.92;20.92;;;2.30;99.90;;;;;;5022495;28;20507;-48
2022/01/11 12:20:51;;;;;;;33.22;21.23;;;2.30;99.90;;;;;;5007858;28;20060;-48
2022/01/11 12:23:35;;;;;;;35.67;21.40;;;2.30;99.90;;;;;;5021389;28;20411;-47
2022/01/11 12:26:21;;;;;;;33.28;21.85;;;2.30;99.90;;;;;;5021701;28;20350;-48
2022/01/11 12:29:09;;;;;;;32.40;20.42;;;2.30;99.90;;;;;;5002980;28;20061;-47
2022/01/11 12:31:53;;;;;;;30.77;19.52;;;2.30;99.90;;;;;;5003043;28;20061;-47
2022/01/11 12:34:39;;;;;;;34.85;21.13;;;2.40;99.90;;;;;;5020970;28;20114;-47
2022/01/11 12:37:05;;;;;;;33.28;20.35;;;2.40;99.90;;;;;;5022128;28;20045;-46
2022/01/11 12:39:32;;;;;;;32.47;21.15;;;2.40;99.90;;;;;;5023673;28;20056;-48
2022/01/11 12:42:00;;;;;;;31.67;20.45;;;2.50;99.90;;;;;;5017448;28;20278;-48